createdAt,value
2018-10-02T00:02:12.793Z,21.99
2018-10-02T00:04:40.284Z,21.95
2018-10-02T00:07:07.760Z,21.94
2018-10-02T00:09:34.423Z,21.96
2018-10-02T00:12:07.353Z,22.01
2018-10-02T00:14:34.968Z,21.94
2018-10-02T00:17:03.382Z,21.96
2018-10-02T00:19:30.993Z,21.89
2018-10-02T00:21:58.664Z,21.90
2018-10-02T00:24:26.302Z,21.91
2018-10-02T00:26:53.828Z,21.91
2018-10-02T00:29:21.487Z,21.91
2018-10-02T00:31:49.099Z,21.90
2018-10-02T00:34:16.789Z,21.91
2018-10-02T00:36:44.322Z,21.95
2018-10-02T00:39:11.776Z,21.92
2018-10-02T00:41:39.379Z,21.91
2018-10-02T00:44:07.128Z,21.94
2018-10-02T00:46:34.588Z,21.87
2018-10-02T00:49:02.210Z,21.85
2018-10-02T00:51:29.865Z,21.83
2018-10-02T00:53:56.504Z,21.87
2018-10-02T00:56:23.141Z,21.85
2018-10-02T00:58:49.805Z,21.85
2018-10-02T01:01:16.625Z,21.88
2018-10-02T01:03:43.260Z,21.90
2018-10-02T01:06:09.892Z,21.88
2018-10-02T01:08:37.702Z,21.92
2018-10-02T01:11:17.800Z,21.86
2018-10-02T01:13:44.488Z,21.76
2018-10-02T01:16:11.127Z,21.78
2018-10-02T01:18:38.752Z,21.75
2018-10-02T01:21:07.312Z,21.79
2018-10-02T01:23:34.880Z,21.80
2018-10-02T01:26:02.473Z,21.81
2018-10-02T01:28:29.169Z,21.83
2018-10-02T01:30:55.812Z,21.81
2018-10-02T01:33:23.438Z,21.87
2018-10-02T01:35:50.072Z,21.85
2018-10-02T01:38:16.704Z,21.81
2018-10-02T01:40:43.400Z,21.86
2018-10-02T01:43:10.064Z,21.73
2018-10-02T01:45:38.629Z,21.75
2018-10-02T01:48:05.285Z,21.66
2018-10-02T01:50:31.921Z,21.70
2018-10-02T01:52:58.580Z,21.69
2018-10-02T01:55:25.216Z,21.73
2018-10-02T01:57:51.912Z,21.78
2018-10-02T02:00:18.560Z,21.81
2018-10-02T02:02:45.221Z,21.83
2018-10-02T02:05:11.891Z,21.80
2018-10-02T02:07:39.383Z,21.85
2018-10-02T02:10:08.008Z,21.78
2018-10-02T02:12:36.664Z,21.82
2018-10-02T02:15:04.355Z,21.79
2018-10-02T02:17:31.919Z,21.81
2018-10-02T02:19:59.528Z,21.80
2018-10-02T02:22:27.342Z,21.81
2018-10-02T02:24:54.939Z,21.87
2018-10-02T02:27:22.484Z,21.84
2018-10-02T02:29:50.396Z,21.77
2018-10-02T02:32:17.264Z,21.77
2018-10-02T02:34:44.569Z,21.80
2018-10-02T02:37:12.060Z,21.80
2018-10-02T02:39:39.464Z,21.83
2018-10-02T02:42:08.565Z,21.85
2018-10-02T02:44:36.760Z,21.79
2018-10-02T02:47:09.945Z,21.83
2018-10-02T02:49:43.045Z,21.76
2018-10-02T02:52:11.089Z,21.73
2018-10-02T02:54:37.736Z,21.71
2018-10-02T02:57:05.240Z,21.74
2018-10-02T02:59:32.769Z,21.78
2018-10-02T03:02:01.649Z,21.78
2018-10-02T03:04:29.282Z,21.78
2018-10-02T03:06:56.907Z,21.78
2018-10-02T03:09:23.544Z,21.76
2018-10-02T03:11:50.201Z,21.77
2018-10-02T03:14:17.813Z,21.76
2018-10-02T03:16:45.473Z,21.79
2018-10-02T03:19:12.136Z,21.76
2018-10-02T03:21:38.797Z,21.76
2018-10-02T03:24:06.809Z,21.70
2018-10-02T03:26:33.472Z,21.73
2018-10-02T03:29:01.503Z,21.70
2018-10-02T03:31:29.020Z,21.70
2018-10-02T03:33:55.753Z,21.70
2018-10-02T03:36:23.359Z,21.74
2018-10-02T03:38:50.025Z,21.74
2018-10-02T03:41:16.679Z,21.77
2018-10-02T03:43:43.353Z,21.74
2018-10-02T03:46:10.072Z,21.78
2018-10-02T03:48:37.909Z,21.76
2018-10-02T03:51:04.740Z,21.65
2018-10-02T03:53:32.536Z,21.72
2018-10-02T03:56:00.136Z,21.71
2018-10-02T03:58:28.419Z,21.74
2018-10-02T04:00:56.046Z,21.66
2018-10-02T04:03:23.539Z,21.66
2018-10-02T04:05:51.237Z,21.67
2018-10-02T04:08:17.929Z,21.71
2018-10-02T04:10:45.629Z,21.65
2018-10-02T04:13:13.380Z,21.64
2018-10-02T04:15:40.915Z,21.65
2018-10-02T04:18:08.404Z,21.59
2018-10-02T04:20:36.822Z,21.63
2018-10-02T04:23:04.420Z,21.62
2018-10-02T04:25:32.033Z,21.61
2018-10-02T04:27:59.729Z,21.64
2018-10-02T04:30:27.191Z,21.67
2018-10-02T04:32:54.348Z,21.71
2018-10-02T04:35:21.161Z,21.72
2018-10-02T04:37:48.808Z,21.67
2018-10-02T04:40:16.456Z,21.60
2018-10-02T04:42:44.194Z,21.54
2018-10-02T04:45:11.812Z,21.61
2018-10-02T04:47:38.465Z,21.63
2018-10-02T04:50:07.585Z,21.70
2018-10-02T04:52:35.216Z,21.65
2018-10-02T04:55:03.287Z,21.65
2018-10-02T04:57:32.012Z,21.60
2018-10-02T04:59:58.732Z,21.64
2018-10-02T05:02:26.297Z,21.64
2018-10-02T05:04:52.897Z,21.65
2018-10-02T05:07:20.462Z,21.50
2018-10-02T05:09:47.237Z,21.51
2018-10-02T05:12:14.864Z,21.58
2018-10-02T05:14:41.523Z,21.65
2018-10-02T05:17:09.189Z,21.63
2018-10-02T05:19:37.658Z,21.60
2018-10-02T05:22:06.285Z,21.65
2018-10-02T05:24:33.989Z,21.63
2018-10-02T05:27:01.505Z,21.58
2018-10-02T05:29:29.184Z,21.58
2018-10-02T05:31:56.816Z,21.60
2018-10-02T05:34:24.341Z,21.54
2018-10-02T05:36:51.965Z,21.63
2018-10-02T05:39:19.680Z,21.60
2018-10-02T05:41:46.333Z,21.58
2018-10-02T05:44:14.145Z,21.61
2018-10-02T05:46:41.654Z,21.69
2018-10-02T05:49:09.328Z,21.60
2018-10-02T05:51:37.794Z,21.67
2018-10-02T05:54:04.489Z,21.59
2018-10-02T05:56:32.074Z,21.54
2018-10-02T05:58:59.582Z,21.52
2018-10-02T06:01:26.285Z,21.55
2018-10-02T06:03:53.923Z,21.52
2018-10-02T06:06:20.592Z,21.58
2018-10-02T06:08:47.276Z,21.60
2018-10-02T06:11:14.945Z,21.62
2018-10-02T06:13:42.471Z,21.55
2018-10-02T06:16:09.977Z,21.60
2018-10-02T06:18:37.490Z,21.69
2018-10-02T06:21:05.097Z,21.67
2018-10-02T06:23:32.629Z,21.66
2018-10-02T06:26:01.442Z,21.72
2018-10-02T06:28:28.112Z,21.69
2018-10-02T06:30:55.661Z,21.75
2018-10-02T06:33:22.536Z,21.70
2018-10-02T06:35:49.173Z,21.66
2018-10-02T06:38:16.806Z,21.66
2018-10-02T06:40:44.385Z,21.72
2018-10-02T06:43:12.174Z,21.71
2018-10-02T06:45:40.273Z,21.70
2018-10-02T06:48:07.900Z,21.78
2018-10-02T06:50:34.698Z,21.74
2018-10-02T06:53:02.129Z,21.74
2018-10-02T06:55:28.809Z,21.75
2018-10-02T06:57:56.461Z,21.74
2018-10-02T07:00:24.337Z,21.84
2018-10-02T07:02:51.961Z,21.72
2018-10-02T07:05:20.966Z,21.68
2018-10-02T07:07:48.566Z,21.72
2018-10-02T07:10:16.142Z,21.74
2018-10-02T07:12:43.898Z,21.75
2018-10-02T07:15:11.442Z,21.75
2018-10-02T07:17:38.956Z,21.72
2018-10-02T07:20:07.600Z,21.74
2018-10-02T07:22:35.178Z,21.76
2018-10-02T07:25:02.650Z,21.73
2018-10-02T07:27:31.512Z,21.70
2018-10-02T07:29:58.845Z,21.71
2018-10-02T07:32:26.517Z,21.71
2018-10-02T07:34:54.131Z,21.77
2018-10-02T07:37:21.732Z,21.77
2018-10-02T07:39:48.434Z,21.78
2018-10-02T07:42:16.059Z,21.77
2018-10-02T07:44:42.795Z,21.84
2018-10-02T07:47:10.321Z,21.83
2018-10-02T07:49:38.548Z,21.72
2018-10-02T07:52:07.601Z,21.56
2018-10-02T07:54:35.107Z,21.64
2018-10-02T07:57:01.868Z,21.66
2018-10-02T07:59:29.276Z,21.69
2018-10-02T08:01:55.942Z,21.84
2018-10-02T08:04:22.621Z,21.79
2018-10-02T08:06:50.244Z,21.88
2018-10-02T08:09:17.861Z,21.92
2018-10-02T08:11:44.775Z,22.00
2018-10-02T08:14:11.365Z,21.97
2018-10-02T08:16:38.522Z,21.94
2018-10-02T08:19:05.173Z,21.89
2018-10-02T08:21:32.537Z,21.97
2018-10-02T08:23:59.255Z,21.93
2018-10-02T08:26:25.905Z,21.93
2018-10-02T08:28:52.597Z,21.93
2018-10-02T08:31:19.289Z,22.00
2018-10-02T08:33:45.944Z,22.02
2018-10-02T08:36:12.691Z,22.11
2018-10-02T08:38:39.387Z,22.12
2018-10-02T08:41:07.622Z,22.10
2018-10-02T08:43:35.340Z,22.14
2018-10-02T08:46:03.318Z,22.14
2018-10-02T08:48:31.770Z,22.15
2018-10-02T08:50:59.392Z,22.14
2018-10-02T08:53:26.020Z,22.13
2018-10-02T08:55:53.742Z,22.16
2018-10-02T08:58:21.391Z,22.19
2018-10-02T09:00:49.200Z,22.19
2018-10-02T09:03:15.934Z,22.16
2018-10-02T09:05:43.353Z,22.11
2018-10-02T09:08:11.008Z,22.16
2018-10-02T09:10:38.520Z,22.20
2018-10-02T09:13:07.558Z,22.14
2018-10-02T09:15:35.231Z,22.05
2018-10-02T09:18:01.917Z,22.09
2018-10-02T09:20:29.502Z,22.10
2018-10-02T09:22:57.180Z,22.09
2018-10-02T09:25:24.883Z,22.11
2018-10-02T09:27:52.414Z,22.13
2018-10-02T09:30:25.684Z,22.14
2018-10-02T09:32:58.737Z,22.00
2018-10-02T09:35:31.761Z,22.00
2018-10-02T09:38:04.916Z,22.07
2018-10-02T09:40:37.989Z,22.08
2018-10-02T09:43:11.494Z,22.12
2018-10-02T09:45:39.109Z,22.13
2018-10-02T09:48:10.570Z,22.23
2018-10-02T09:50:38.396Z,22.18
2018-10-02T09:53:07.213Z,22.15
2018-10-02T09:55:33.945Z,22.12
2018-10-02T09:58:01.786Z,22.24
2018-10-02T10:00:34.330Z,22.12
2018-10-02T10:03:01.979Z,22.11
2018-10-02T10:05:29.422Z,22.13
2018-10-02T10:07:57.046Z,22.22
2018-10-02T10:10:25.696Z,22.27
2018-10-02T10:12:52.370Z,22.21
2018-10-02T10:17:45.993Z,22.25
2018-10-02T10:20:12.649Z,22.26
2018-10-02T10:22:40.164Z,22.20
2018-10-02T10:25:07.579Z,22.17
2018-10-02T10:27:34.269Z,22.17
2018-10-02T10:30:02.378Z,22.12
2018-10-02T10:32:29.054Z,22.11
2018-10-02T10:34:55.770Z,22.27
2018-10-02T10:37:22.477Z,22.18
2018-10-02T10:39:49.184Z,22.12
2018-10-02T10:42:15.837Z,22.12
2018-10-02T10:44:42.489Z,22.14
2018-10-02T10:47:09.220Z,22.11
2018-10-02T10:49:37.414Z,22.12
2018-10-02T10:52:04.885Z,22.11
2018-10-02T10:54:32.541Z,22.09
2018-10-02T10:56:59.197Z,22.09
2018-10-02T10:59:26.808Z,22.13
2018-10-02T11:01:54.341Z,22.11
2018-10-02T11:04:22.109Z,22.14
2018-10-02T11:06:49.770Z,22.19
2018-10-02T11:09:16.442Z,22.18
2018-10-02T11:11:44.065Z,22.22
2018-10-02T11:14:10.740Z,22.11
2018-10-02T11:16:38.270Z,22.14
2018-10-02T11:19:07.001Z,22.10
2018-10-02T11:21:34.661Z,22.04
2018-10-02T11:24:02.268Z,22.11
2018-10-02T11:26:29.816Z,22.16
2018-10-02T11:28:57.442Z,22.14
2018-10-02T11:31:24.190Z,22.15
2018-10-02T11:33:51.848Z,22.19
2018-10-02T11:36:18.637Z,22.18
2018-10-02T11:38:46.338Z,22.19
2018-10-02T11:41:13.797Z,22.26
2018-10-02T11:43:41.628Z,22.18
2018-10-02T11:46:09.201Z,22.08
2018-10-02T11:48:36.692Z,22.10
2018-10-02T11:51:04.309Z,22.09
2018-10-02T11:53:32.776Z,22.10
2018-10-02T11:56:00.210Z,22.13
2018-10-02T11:58:27.812Z,22.13
2018-10-02T12:00:55.348Z,22.17
2018-10-02T12:03:23.058Z,22.14
2018-10-02T12:05:49.768Z,22.12
2018-10-02T12:08:16.441Z,22.12
2018-10-02T12:10:43.994Z,22.18
2018-10-02T12:13:10.659Z,22.18
2018-10-02T12:15:38.307Z,22.26
2018-10-02T12:18:07.156Z,22.31
2018-10-02T12:20:34.664Z,22.27
2018-10-02T12:23:02.376Z,22.21
2018-10-02T12:25:29.974Z,22.25
2018-10-02T12:27:57.478Z,22.27
2018-10-02T12:30:25.137Z,22.23
2018-10-02T12:35:19.818Z,22.16
2018-10-02T12:37:47.313Z,22.12
2018-10-02T12:40:14.797Z,22.19
2018-10-02T12:42:42.285Z,22.21
2018-10-02T12:45:09.837Z,22.17
2018-10-02T12:47:37.469Z,22.16
2018-10-02T12:50:04.930Z,22.20
2018-10-02T12:52:32.629Z,22.24
2018-10-02T12:55:00.188Z,22.21
2018-10-02T12:57:27.718Z,22.18
2018-10-02T12:59:55.224Z,22.15
2018-10-02T13:02:22.717Z,22.11
2018-10-02T13:04:50.414Z,22.10
2018-10-02T13:07:17.870Z,22.16
2018-10-02T13:09:45.489Z,22.22
2018-10-02T13:12:13.123Z,22.18
2018-10-02T13:14:39.821Z,22.13
2018-10-02T13:17:07.362Z,22.11
2018-10-02T13:19:34.905Z,22.12
2018-10-02T13:22:02.581Z,22.18
2018-10-02T13:24:30.297Z,22.18
2018-10-02T13:26:57.958Z,22.12
2018-10-02T13:29:25.500Z,22.10
2018-10-02T13:31:53.077Z,22.05
2018-10-02T13:34:20.718Z,22.03
2018-10-02T13:36:48.405Z,22.08
2018-10-02T13:39:16.044Z,22.04
2018-10-02T13:41:43.680Z,22.02
2018-10-02T13:44:11.234Z,22.06
2018-10-02T13:46:38.808Z,22.09
2018-10-02T13:49:07.060Z,22.09
2018-10-02T13:51:34.649Z,22.04
2018-10-02T13:54:02.487Z,22.13
2018-10-02T13:56:30.065Z,22.14
2018-10-02T13:58:56.720Z,22.03
2018-10-02T14:01:23.499Z,21.98
2018-10-02T14:03:50.136Z,22.02
2018-10-02T14:06:17.370Z,22.07
2018-10-02T14:08:44.017Z,22.00
2018-10-02T14:11:10.695Z,22.01
2018-10-02T14:13:37.457Z,21.99
2018-10-02T14:16:04.122Z,21.94
2018-10-02T14:18:32.830Z,21.95
2018-10-02T14:20:59.494Z,21.93
2018-10-02T14:23:26.161Z,21.95
2018-10-02T14:25:52.833Z,21.93
2018-10-02T14:28:19.485Z,21.97
2018-10-02T14:30:46.229Z,21.94
2018-10-02T14:33:12.877Z,21.96
2018-10-02T14:35:39.542Z,21.94
2018-10-02T14:38:07.402Z,21.97
2018-10-02T14:40:34.094Z,21.91
2018-10-02T14:43:01.546Z,21.89
2018-10-02T14:45:28.204Z,21.90
2018-10-02T14:47:54.867Z,21.92
2018-10-02T14:50:22.385Z,21.93
2018-10-02T14:52:50.084Z,21.83
2018-10-02T14:55:17.628Z,21.89
2018-10-02T14:57:45.181Z,21.89
2018-10-02T15:00:12.714Z,21.88
2018-10-02T15:02:40.225Z,21.91
2018-10-02T15:05:07.953Z,21.95
2018-10-02T15:07:36.179Z,21.87
2018-10-02T15:10:02.880Z,21.91
2018-10-02T15:12:30.408Z,21.95
2018-10-02T15:14:57.173Z,21.89
2018-10-02T15:17:24.719Z,21.89
2018-10-02T15:19:51.404Z,21.87
2018-10-02T15:22:19.040Z,21.86
2018-10-02T15:24:46.673Z,21.88
2018-10-02T15:27:13.398Z,21.93
2018-10-02T15:29:41.044Z,21.93
2018-10-02T15:32:08.771Z,21.94
2018-10-02T15:34:37.501Z,21.89
2018-10-02T15:37:04.763Z,21.84
2018-10-02T15:39:33.818Z,21.86
2018-10-02T15:42:02.616Z,21.87
2018-10-02T15:44:30.320Z,21.84
2018-10-02T15:46:57.872Z,21.88
2018-10-02T15:49:25.524Z,21.92
2018-10-02T15:51:53.004Z,21.89
2018-10-02T15:54:20.673Z,21.96
2018-10-02T15:56:48.184Z,22.00
2018-10-02T15:59:15.845Z,22.04
2018-10-02T16:01:43.501Z,22.02
2018-10-02T16:04:11.176Z,21.96
2018-10-02T16:06:38.433Z,22.02
2018-10-02T16:09:06.754Z,21.98
2018-10-02T16:11:34.401Z,21.99
2018-10-02T16:14:02.874Z,21.93
2018-10-02T16:16:30.424Z,21.87
2018-10-02T16:18:57.906Z,21.92
2018-10-02T16:21:25.568Z,21.91
2018-10-02T16:23:53.037Z,21.90
2018-10-02T16:26:20.713Z,21.96
2018-10-02T16:28:48.421Z,21.94
2018-10-02T16:31:16.019Z,21.98
2018-10-02T16:33:43.689Z,21.97
2018-10-02T16:36:11.124Z,21.94
2018-10-02T16:38:38.853Z,21.98
2018-10-02T16:41:06.868Z,21.93
2018-10-02T16:43:34.394Z,21.88
2018-10-02T16:46:03.065Z,21.90
2018-10-02T16:48:31.737Z,21.87
2018-10-02T16:50:59.413Z,21.94
2018-10-02T16:53:27.044Z,21.92
2018-10-02T16:55:54.755Z,21.98
2018-10-02T16:58:22.414Z,21.96
2018-10-02T17:00:50.061Z,21.95
2018-10-02T17:03:16.761Z,21.97
2018-10-02T17:05:43.481Z,22.00
2018-10-02T17:08:10.154Z,21.98
2018-10-02T17:10:37.417Z,21.98
2018-10-02T17:13:05.121Z,21.93
2018-10-02T17:15:32.753Z,21.98
2018-10-02T17:18:00.291Z,21.99
2018-10-02T17:20:26.985Z,21.99
2018-10-02T17:22:53.714Z,22.00
2018-10-02T17:25:20.385Z,21.99
2018-10-02T17:27:47.956Z,22.04
2018-10-02T17:30:14.694Z,22.02
2018-10-02T17:32:42.133Z,22.01
2018-10-02T17:35:08.873Z,21.95
2018-10-02T17:37:36.638Z,21.95
2018-10-02T17:40:04.326Z,21.93
2018-10-02T17:42:32.029Z,21.88
2018-10-02T17:44:58.761Z,21.93
2018-10-02T17:47:25.431Z,21.93
2018-10-02T17:49:52.111Z,21.93
2018-10-02T17:52:18.781Z,21.97
2018-10-02T17:54:45.508Z,21.94
2018-10-02T17:57:12.214Z,21.96
2018-10-02T17:59:39.801Z,21.94
2018-10-02T18:02:07.273Z,21.91
2018-10-02T18:04:33.933Z,21.95
2018-10-02T18:07:00.632Z,21.96
2018-10-02T18:09:27.290Z,21.90
2018-10-02T18:11:54.872Z,21.94
2018-10-02T18:14:22.415Z,22.00
2018-10-02T18:16:50.029Z,22.04
2018-10-02T18:19:16.713Z,22.00
2018-10-02T18:21:43.365Z,22.06
2018-10-02T18:24:10.917Z,21.99
2018-10-02T18:26:38.468Z,21.94
2018-10-02T18:29:07.071Z,21.92
2018-10-02T18:31:34.572Z,21.95
2018-10-02T18:34:03.097Z,21.97
2018-10-02T18:36:29.760Z,21.98
2018-10-02T18:38:56.579Z,22.01
2018-10-02T18:41:23.234Z,21.95
2018-10-02T18:43:50.740Z,22.01
2018-10-02T18:46:17.396Z,22.01
2018-10-02T18:48:45.172Z,22.03
2018-10-02T18:51:11.850Z,22.01
2018-10-02T18:53:39.522Z,21.99
2018-10-02T18:56:07.435Z,21.99
2018-10-02T18:58:34.929Z,21.98
2018-10-02T19:01:03.897Z,21.96
2018-10-02T19:03:32.130Z,21.96
2018-10-02T19:05:59.812Z,21.95
2018-10-02T19:08:33.058Z,21.99
2018-10-02T19:11:05.241Z,21.90
2018-10-02T19:13:32.862Z,21.93
2018-10-02T19:16:07.315Z,21.88
2018-10-02T19:18:34.037Z,21.92
2018-10-02T19:21:02.912Z,22.00
2018-10-02T19:23:30.576Z,22.03
2018-10-02T19:26:04.606Z,22.09
2018-10-02T19:28:33.768Z,22.09
2018-10-02T19:31:06.956Z,22.08
2018-10-02T19:33:33.617Z,22.14
2018-10-02T19:36:00.335Z,22.12
2018-10-02T19:38:34.626Z,22.15
2018-10-02T19:41:03.079Z,22.09
2018-10-02T19:43:30.601Z,22.03
2018-10-02T19:46:03.926Z,22.07
2018-10-02T19:48:32.503Z,22.08
2018-10-02T19:51:04.885Z,22.14
2018-10-02T19:53:32.593Z,22.09
2018-10-02T19:56:00.351Z,22.09
2018-10-02T19:58:28.042Z,22.09
2018-10-02T20:00:55.485Z,22.14
2018-10-02T20:03:23.052Z,22.13
2018-10-02T20:05:50.647Z,22.12
2018-10-02T20:08:17.314Z,22.13
2018-10-02T20:10:45.012Z,22.09
2018-10-02T20:13:12.703Z,22.07
2018-10-02T20:15:50.522Z,22.11
2018-10-02T20:18:17.178Z,21.99
2018-10-02T20:20:44.805Z,21.99
2018-10-02T20:23:11.473Z,22.00
2018-10-02T20:25:38.133Z,22.09
2018-10-02T20:28:05.155Z,22.07
2018-10-02T20:30:33.542Z,22.10
2018-10-02T20:33:02.013Z,22.07
2018-10-02T20:35:28.712Z,22.11
2018-10-02T20:37:55.440Z,22.12
2018-10-02T20:40:23.113Z,22.10
2018-10-02T20:42:50.805Z,22.12
2018-10-02T20:45:18.450Z,22.12
2018-10-02T20:47:46.073Z,22.17
2018-10-02T20:50:13.737Z,22.13
2018-10-02T20:52:41.357Z,22.12
2018-10-02T20:55:08.046Z,22.15
2018-10-02T20:57:36.669Z,22.14
2018-10-02T21:00:03.386Z,22.12
2018-10-02T21:02:32.270Z,22.06
2018-10-02T21:04:59.765Z,22.08
2018-10-02T21:07:27.410Z,22.09
2018-10-02T21:09:55.109Z,22.18
2018-10-02T21:12:21.765Z,22.22
2018-10-02T21:14:49.257Z,22.18
2018-10-02T21:17:15.946Z,22.14
2018-10-02T21:19:42.630Z,22.13
2018-10-02T21:22:09.357Z,22.09
2018-10-02T21:24:38.422Z,22.12
2018-10-02T21:27:05.080Z,22.10
2018-10-02T21:29:32.713Z,22.12
2018-10-02T21:31:59.414Z,22.12
2018-10-02T21:34:26.905Z,22.12
2018-10-02T21:36:53.629Z,22.19
2018-10-02T21:39:20.281Z,22.19
2018-10-02T21:41:46.922Z,22.16
2018-10-02T21:44:13.575Z,22.17
2018-10-02T21:46:40.253Z,22.13
2018-10-02T21:49:08.101Z,22.08
2018-10-02T21:51:34.777Z,22.07
2018-10-02T21:54:03.861Z,22.11
2018-10-02T21:56:32.925Z,22.12
2018-10-02T21:58:59.622Z,22.20
2018-10-02T22:01:30.290Z,22.17
2018-10-02T22:03:56.992Z,22.19
2018-10-02T22:06:23.646Z,22.13
2018-10-02T22:08:50.293Z,22.15
2018-10-02T22:11:17.038Z,22.11
2018-10-02T22:13:43.739Z,22.08
2018-10-02T22:16:10.436Z,22.10
2018-10-02T22:18:37.988Z,22.08
2018-10-02T22:21:04.767Z,22.07
2018-10-02T22:23:32.252Z,22.08
2018-10-02T22:25:58.898Z,22.13
2018-10-02T22:28:26.621Z,22.16
2018-10-02T22:30:54.249Z,22.16
2018-10-02T22:33:20.939Z,22.15
2018-10-02T22:35:48.489Z,22.15
2018-10-02T22:38:15.125Z,22.11
2018-10-02T22:40:42.879Z,22.12
2018-10-02T22:43:09.554Z,22.06
2018-10-02T22:45:38.606Z,22.13
2018-10-02T22:48:07.645Z,22.23
2018-10-02T22:50:36.325Z,22.18
2018-10-02T22:53:03.949Z,22.25
2018-10-02T22:55:32.921Z,22.27
2018-10-02T22:58:00.528Z,22.20
2018-10-02T23:00:28.069Z,22.21
2018-10-02T23:02:55.464Z,22.28
2018-10-02T23:05:23.097Z,22.25
2018-10-02T23:07:50.409Z,22.27
2018-10-02T23:10:18.010Z,22.21
2018-10-02T23:12:45.638Z,22.18
2018-10-02T23:15:12.373Z,22.23
2018-10-02T23:17:40.120Z,22.26
2018-10-02T23:20:07.780Z,22.23
2018-10-02T23:22:36.412Z,22.27
2018-10-02T23:25:04.037Z,22.23
2018-10-02T23:27:30.725Z,22.29
2018-10-02T23:29:58.225Z,22.21
2018-10-02T23:32:25.915Z,22.31
2018-10-02T23:34:53.462Z,22.22
2018-10-02T23:37:21.065Z,22.18
2018-10-02T23:39:48.606Z,22.14
2018-10-02T23:42:15.309Z,22.19
2018-10-02T23:44:42.993Z,22.20
2018-10-02T23:47:10.697Z,22.19
2018-10-02T23:49:38.269Z,22.25
2018-10-02T23:56:59.888Z,22.31
2018-10-02T23:59:27.390Z,22.27
